Weather History for Mora, MN

Change the Weather History Date:

Tuesday, June 4, 2013

  Actual Average Record
Temperature  
Mean Temperature 54 °F -  
Max Temperature 59 °F 76 °F 94 °F (1968)
Min Temperature 50 °F 47 °F 30 °F (1990)
Degree Days  
Heating Degree Days 10    
Growing Degree Days 4 (Base 50)    
Moisture  
Dew Point 43 °F    
Average Humidity 69    
Maximum Humidity 94    
Minimum Humidity 50    
Precipitation  
Precipitation 0.56 in - - ()
Sea Level Pressure  
Sea Level Pressure 30.09 in    
Wind  
Wind Speed 5 mph (ESE)    
Max Wind Speed 12 mph    
Max Gust Speed 17 mph    
Visibility 10 miles    
Events Rain    
Averages and records for this station are not official NWS values.
T = Trace of Precipitation, MM = Missing Value Source: NWS Daily Summary

Daily Weather History Graph

Daily Weather History Graph

Search for Another Location

Airport:

Trip Planner

Search our weather history database for the weather conditions in past years. The results will help you decide how hot, cold, wet, or windy it might be!

Date:

Astronomy

Jun. 04, 2013 Rise Set
Actual Time 5:24 AM CDT 8:58 PM CDT
Civil Twilight 4:47 AM CDT 9:36 PM CDT
Nautical Twilight 3:57 AM CDT 10:26 PM CDT
Astronomical Twilight 2:51 AM CDT 11:33 PM CDT
Moon 3:05 AM CDT (6/4) 5:19 PM CDT (6/4)
Length of Visible Light 16h 49m
Length of Day
15h 34m
Waning Crescent, 14% of the Moon is Illuminated
Jun 4
Waning Crescent
Jun 8
New
Jun 16
First Quarter
Jun 23
Full
Jun 29
Last Quarter

Hourly Weather History & Observations

Time (CDT) Temp. Dew Point Humidity Pressure Visibility Wind Dir Wind Speed Gust Speed Precip Events Conditions
12:11 AM 55.4 °F 37.4 °F 51% 30.07 in 10.0 mi East 4.6 mph - N/A   Overcast
12:31 AM 55.4 °F 37.4 °F 51% 30.07 in 10.0 mi Calm Calm - N/A   Overcast
12:51 AM 53.6 °F 37.4 °F 54% 30.06 in 10.0 mi East 4.6 mph - N/A   Overcast
1:11 AM 55.4 °F 37.4 °F 51% 30.05 in 10.0 mi Calm Calm - N/A   Overcast
1:31 AM 53.6 °F 37.4 °F 54% 30.05 in 10.0 mi East 3.5 mph - N/A   Overcast
1:51 AM 53.6 °F 37.4 °F 54% 30.05 in 10.0 mi East 3.5 mph - N/A   Overcast
2:11 AM 53.6 °F 35.6 °F 51% 30.07 in 10.0 mi Calm Calm - N/A   Overcast
2:31 AM 53.6 °F 35.6 °F 51% 30.08 in 10.0 mi Calm Calm - N/A   Overcast
2:51 AM 53.6 °F 35.6 °F 51% 30.09 in 10.0 mi Calm Calm - N/A   Overcast
3:11 AM 53.6 °F 35.6 °F 51% 30.09 in 10.0 mi East 3.5 mph - N/A   Overcast
3:31 AM 53.6 °F 35.6 °F 51% 30.10 in 10.0 mi Calm Calm - N/A   Overcast
3:51 AM 53.6 °F 35.6 °F 51% 30.11 in 10.0 mi Calm Calm - N/A   Overcast
4:11 AM 51.8 °F 35.6 °F 54% 30.08 in 10.0 mi East 4.6 mph - N/A   Scattered Clouds
4:31 AM 51.8 °F 33.8 °F 50% 30.08 in 10.0 mi East 5.8 mph - N/A   Clear
4:51 AM 51.8 °F 33.8 °F 50% 30.07 in 10.0 mi East 8.1 mph - N/A   Clear
5:11 AM 51.8 °F 33.8 °F 50% 30.06 in 10.0 mi East 8.1 mph - N/A   Scattered Clouds
5:31 AM 51.8 °F 33.8 °F 50% 30.05 in 10.0 mi East 10.4 mph - N/A   Scattered Clouds
5:51 AM 51.8 °F 33.8 °F 50% 30.05 in 10.0 mi East 6.9 mph - N/A   Mostly Cloudy
6:11 AM 51.8 °F 33.8 °F 50% 30.05 in 10.0 mi East 6.9 mph - N/A   Mostly Cloudy
6:31 AM 51.8 °F 35.6 °F 54% 30.05 in 10.0 mi East 6.9 mph - N/A   Scattered Clouds
6:51 AM 51.8 °F 35.6 °F 54% 30.06 in 10.0 mi East 5.8 mph - N/A   Overcast
7:11 AM 51.8 °F 35.6 °F 54% 30.07 in 10.0 mi East 8.1 mph - N/A   Overcast
7:31 AM 53.6 °F 37.4 °F 54% 30.07 in 10.0 mi East 9.2 mph - N/A   Overcast
7:51 AM 53.6 °F 37.4 °F 54% 30.07 in 10.0 mi East 8.1 mph - N/A   Overcast
8:11 AM 53.6 °F 37.4 °F 54% 30.08 in 10.0 mi ENE 3.5 mph - N/A   Overcast
8:31 AM 53.6 °F 37.4 °F 54% 30.10 in 10.0 mi Calm Calm - N/A   Overcast
8:51 AM 53.6 °F 39.2 °F 58% 30.11 in 10.0 mi Calm Calm - N/A   Overcast
9:11 AM 51.8 °F 41.0 °F 67% 30.12 in 10.0 mi Calm Calm - N/A Rain Light Rain
9:31 AM 51.8 °F 42.8 °F 71% 30.12 in 10.0 mi ENE 3.5 mph - N/A   Overcast
9:51 AM 53.6 °F 42.8 °F 67% 30.13 in 10.0 mi East 4.6 mph - N/A   Overcast
10:11 AM 53.6 °F 42.8 °F 67% 30.13 in 10.0 mi ENE 3.5 mph - N/A Rain Light Rain
10:31 AM 53.6 °F 42.8 °F 67% 30.13 in 10.0 mi East 3.5 mph - N/A   Light Drizzle
10:51 AM 53.6 °F 44.6 °F 72% 30.12 in 10.0 mi East 6.9 mph - N/A   Light Drizzle
11:11 AM 55.4 °F 46.4 °F 72% 30.13 in 10.0 mi East 6.9 mph - N/A   Overcast
11:31 AM 55.4 °F 46.4 °F 72% 30.12 in 10.0 mi ESE 9.2 mph - N/A Rain Light Rain
11:51 AM 55.4 °F 46.4 °F 72% 30.11 in 10.0 mi ESE 5.8 mph - N/A Rain Light Rain
12:11 PM 55.4 °F 46.4 °F 72% 30.10 in 10.0 mi ESE 9.2 mph - N/A   Overcast
12:31 PM 55.4 °F 50.0 °F 82% 30.10 in 10.0 mi ESE 10.4 mph - N/A   Light Drizzle
12:51 PM 57.2 °F 48.2 °F 72% 30.09 in 10.0 mi ESE 11.5 mph 17.3 mph N/A   Light Drizzle
1:11 PM 59.0 °F 48.2 °F 67% 30.09 in 10.0 mi East 11.5 mph - N/A   Overcast
1:31 PM 59.0 °F 50.0 °F 72% 30.09 in 10.0 mi East 8.1 mph - N/A   Overcast
1:51 PM 59.0 °F 48.2 °F 67% 30.08 in 10.0 mi ESE 8.1 mph - N/A   Overcast
2:11 PM 59.0 °F 46.4 °F 63% 30.09 in 10.0 mi ESE 5.8 mph - N/A   Overcast
2:31 PM 59.0 °F 44.6 °F 59% 30.08 in 10.0 mi SE 8.1 mph 16.1 mph N/A Rain Light Rain
2:51 PM 55.4 °F 44.6 °F 67% 30.09 in 7.0 mi SSE 8.1 mph - 0.03 in Rain Rain
3:11 PM 55.4 °F 46.4 °F 72% 30.07 in 10.0 mi SE 8.1 mph - 0.02 in Rain Light Rain
3:31 PM 55.4 °F 46.4 °F 72% 30.08 in 5.0 mi SE 4.6 mph - 0.09 in Rain Heavy Rain
3:51 PM 53.6 °F 46.4 °F 77% 30.09 in 7.0 mi SSE 3.5 mph - 0.14 in Rain Rain
4:11 PM 53.6 °F 48.2 °F 82% 30.10 in 10.0 mi ESE 5.8 mph - 0.01 in Rain Light Rain
4:31 PM 53.6 °F 48.2 °F 82% 30.10 in 10.0 mi ESE 4.6 mph - 0.02 in Rain Rain
4:51 PM 53.6 °F 48.2 °F 82% 30.08 in 10.0 mi East 8.1 mph - 0.05 in Rain Rain
5:11 PM 53.6 °F 48.2 °F 82% 30.09 in 10.0 mi East 3.5 mph - N/A Rain Light Rain
5:31 PM 53.6 °F 48.2 °F 82% 30.10 in 10.0 mi ESE 8.1 mph - N/A Rain Light Rain
5:51 PM 53.6 °F 48.2 °F 82% 30.09 in 10.0 mi ESE 8.1 mph - N/A   Light Drizzle
6:11 PM 53.6 °F 48.2 °F 82% 30.09 in 10.0 mi ESE 4.6 mph - N/A Rain Light Rain
6:31 PM 53.6 °F 48.2 °F 82% 30.10 in 10.0 mi SE 3.5 mph - N/A   Drizzle
6:51 PM 53.6 °F 48.2 °F 82% 30.09 in 10.0 mi ESE 8.1 mph - 0.02 in Rain Light Rain
7:11 PM 51.8 °F 46.4 °F 82% 30.09 in 7.0 mi ESE 6.9 mph - 0.03 in Rain Light Rain
7:31 PM 51.8 °F 46.4 °F 82% 30.11 in 7.0 mi ENE 4.6 mph - 0.06 in Rain Rain
7:51 PM 50.0 °F 46.4 °F 87% 30.12 in 7.0 mi East 3.5 mph - 0.10 in Rain Rain
8:11 PM 50.0 °F 46.4 °F 87% 30.11 in 5.0 mi East 6.9 mph - 0.05 in Rain Rain
8:31 PM 50.0 °F 48.2 °F 94% 30.11 in 5.0 mi East 9.2 mph - 0.15 in Rain Rain
8:51 PM 50.0 °F 48.2 °F 94% 30.11 in 5.0 mi East 6.9 mph - 0.21 in Rain Rain
9:11 PM 50.0 °F 48.2 °F 94% 30.10 in 7.0 mi ESE 9.2 mph - 0.01 in Rain Light Rain
9:31 PM 50.0 °F 48.2 °F 94% 30.10 in 10.0 mi ESE 6.9 mph - 0.01 in Rain Light Rain
9:51 PM 50.0 °F 48.2 °F 94% 30.10 in 10.0 mi ESE 8.1 mph - 0.01 in   Light Drizzle
10:11 PM 50.0 °F 48.2 °F 94% 30.11 in 10.0 mi ESE 6.9 mph - N/A   Overcast
10:31 PM 50.0 °F 48.2 °F 94% 30.11 in 10.0 mi ESE 5.8 mph - N/A   Overcast
10:51 PM 50.0 °F 48.2 °F 94% 30.11 in 10.0 mi ESE 6.9 mph - N/A   Overcast
11:11 PM 50.0 °F 48.2 °F 94% 30.10 in 10.0 mi ESE 8.1 mph - N/A   Overcast
11:31 PM 50.0 °F 48.2 °F 94% 30.10 in 10.0 mi ESE 8.1 mph - N/A   Overcast
11:51 PM 50.0 °F 48.2 °F 94% 30.09 in 10.0 mi East 4.6 mph - N/A   Overcast